createdAt,value
2018-04-16T00:01:56.679Z,11.90
2018-04-16T00:04:26.383Z,11.80
2018-04-16T00:06:56.051Z,11.80
2018-04-16T00:09:25.704Z,11.70
2018-04-16T00:11:56.692Z,11.70
2018-04-16T00:14:27.400Z,11.70
2018-04-16T00:16:57.835Z,11.60
2018-04-16T00:19:28.402Z,11.50
2018-04-16T00:21:58.018Z,11.50
2018-04-16T00:24:27.841Z,11.50
2018-04-16T00:26:57.569Z,11.40
2018-04-16T00:29:28.002Z,11.50
2018-04-16T00:32:03.255Z,11.50
2018-04-16T00:34:39.814Z,11.60
2018-04-16T00:37:17.093Z,11.60
2018-04-16T00:39:52.852Z,11.50
2018-04-16T00:42:28.122Z,11.50
2018-04-16T00:45:03.103Z,11.50
2018-04-16T00:47:38.256Z,11.40
2018-04-16T00:50:15.465Z,11.30
2018-04-16T00:52:52.961Z,11.10
2018-04-16T00:55:30.170Z,11.10
2018-04-16T00:58:08.240Z,11.00
2018-04-16T01:00:43.762Z,10.90
2018-04-16T01:03:19.056Z,10.90
2018-04-16T01:05:54.159Z,10.80
2018-04-16T01:08:30.424Z,11.00
2018-04-16T01:11:07.011Z,11.20
2018-04-16T01:13:42.053Z,11.10
2018-04-16T01:16:17.259Z,11.10
2018-04-16T01:18:53.041Z,11.10
2018-04-16T01:21:28.134Z,11.20
2018-04-16T01:24:03.530Z,11.10
2018-04-16T01:26:38.568Z,11.00
2018-04-16T01:29:14.452Z,11.00
2018-04-16T01:31:49.612Z,10.90
2018-04-16T01:37:25.503Z,10.90
2018-04-16T01:40:00.966Z,10.90
2018-04-16T01:42:36.080Z,10.90
2018-04-16T01:45:11.224Z,10.90
2018-04-16T01:47:49.856Z,10.80
2018-04-16T01:50:25.302Z,10.70
2018-04-16T01:53:00.185Z,10.60
2018-04-16T01:55:36.948Z,10.40
2018-04-16T01:58:12.146Z,10.30
2018-04-16T02:00:47.378Z,10.30
2018-04-16T02:06:31.320Z,10.30
2018-04-16T02:09:06.803Z,10.40
2018-04-16T02:11:41.879Z,10.40
2018-04-16T02:14:17.028Z,10.40
2018-04-16T02:16:53.011Z,10.40
2018-04-16T02:19:27.945Z,10.30
2018-04-16T02:22:02.985Z,10.20
2018-04-16T02:24:38.751Z,10.30
2018-04-16T02:27:14.046Z,10.30
2018-04-16T02:29:50.219Z,10.40
2018-04-16T02:32:25.609Z,10.30
2018-04-16T02:35:01.636Z,10.40
2018-04-16T02:37:37.200Z,10.60
2018-04-16T02:40:13.631Z,10.70
2018-04-16T02:42:51.586Z,10.80
2018-04-16T02:45:26.924Z,10.80
2018-04-16T02:48:03.188Z,10.80
2018-04-16T02:50:39.148Z,10.70
2018-04-16T02:56:18.357Z,10.60
2018-04-16T02:58:53.642Z,10.60
2018-04-16T03:01:30.616Z,10.50
2018-04-16T03:04:05.660Z,10.40
2018-04-16T03:06:40.713Z,10.40
2018-04-16T03:09:16.029Z,10.40
2018-04-16T03:11:51.185Z,10.30
2018-04-16T03:14:27.401Z,10.30
2018-04-16T03:17:02.575Z,10.30
2018-04-16T03:19:38.328Z,10.30
2018-04-16T03:22:14.349Z,10.40
2018-04-16T03:24:50.962Z,10.40
2018-04-16T03:27:26.730Z,10.40
2018-04-16T03:30:03.177Z,10.30
2018-04-16T03:35:41.630Z,10.20
2018-04-16T03:38:16.665Z,10.10
2018-04-16T03:40:52.001Z,10.00
2018-04-16T03:46:33.303Z,9.90
2018-04-16T03:49:09.941Z,9.80
2018-04-16T03:54:44.038Z,9.80
2018-04-16T03:57:15.045Z,9.70
2018-04-16T03:59:44.856Z,9.60
2018-04-16T04:02:14.861Z,9.70
2018-04-16T04:04:44.566Z,9.70
2018-04-16T04:07:14.740Z,9.60
2018-04-16T04:09:44.415Z,9.60
2018-04-16T04:12:14.196Z,9.60
2018-04-16T04:14:43.760Z,9.70
2018-04-16T04:17:14.148Z,9.70
2018-04-16T04:19:43.968Z,9.70
2018-04-16T04:22:14.172Z,9.70
2018-04-16T04:25:03.260Z,9.70
2018-04-16T04:27:50.621Z,9.70
2018-04-16T04:33:19.343Z,9.80
2018-04-16T04:35:49.335Z,9.70
2018-04-16T04:38:19.898Z,9.90
2018-04-16T04:40:49.653Z,9.90
2018-04-16T04:43:19.424Z,9.90
2018-04-16T04:45:49.173Z,9.90
2018-04-16T04:48:19.621Z,10.00
2018-04-16T04:50:51.324Z,10.00
2018-04-16T04:53:21.487Z,10.00
2018-04-16T04:55:51.167Z,10.00
2018-04-16T04:58:21.089Z,9.90
2018-04-16T05:00:51.137Z,10.00
2018-04-16T05:03:21.752Z,10.00
2018-04-16T05:05:53.827Z,10.10
2018-04-16T05:08:23.738Z,10.10
2018-04-16T05:10:53.844Z,10.20
2018-04-16T05:13:24.543Z,10.30
2018-04-16T05:15:54.616Z,10.30
2018-04-16T05:18:24.430Z,10.50
2018-04-16T05:20:54.345Z,10.50
2018-04-16T05:23:24.165Z,10.60
2018-04-16T05:25:55.069Z,10.70
2018-04-16T05:28:32.252Z,10.90
2018-04-16T05:31:08.261Z,11.00
2018-04-16T05:33:37.907Z,11.20
2018-04-16T05:36:07.856Z,11.40
2018-04-16T05:38:37.653Z,11.50
2018-04-16T05:41:07.550Z,11.70
2018-04-16T05:43:37.173Z,11.90
2018-04-16T05:46:07.009Z,12.00
2018-04-16T05:48:36.829Z,12.30
2018-04-16T05:51:06.491Z,12.40
2018-04-16T05:53:36.226Z,12.50
2018-04-16T05:56:06.035Z,12.70
2018-04-16T05:58:37.406Z,12.70
2018-04-16T06:01:07.526Z,12.60
2018-04-16T06:03:37.553Z,12.60
2018-04-16T06:06:07.289Z,12.90
2018-04-16T06:08:36.971Z,13.30
2018-04-16T06:11:06.600Z,13.70
2018-04-16T06:13:36.490Z,14.20
2018-04-16T06:16:07.324Z,14.50
2018-04-16T06:18:37.252Z,14.80
2018-04-16T06:21:06.962Z,15.10
2018-04-16T06:23:37.561Z,15.80
2018-04-16T06:26:07.526Z,15.70
2018-04-16T06:28:38.208Z,16.40
2018-04-16T06:31:07.827Z,16.40
2018-04-16T06:33:38.378Z,16.90
2018-04-16T06:36:07.978Z,17.20
2018-04-16T06:38:37.684Z,17.40
2018-04-16T06:41:07.591Z,17.60
2018-04-16T06:43:37.214Z,17.70
2018-04-16T06:46:06.971Z,17.90
2018-04-16T06:48:37.683Z,18.30
2018-04-16T06:51:07.536Z,18.20
2018-04-16T06:53:37.991Z,18.80
2018-04-16T06:56:07.563Z,18.70
2018-04-16T06:58:38.758Z,19.30
2018-04-16T07:01:13.989Z,19.20
2018-04-16T07:03:46.236Z,19.80
2018-04-16T07:06:15.762Z,19.80
2018-04-16T07:08:45.387Z,19.90
2018-04-16T07:11:15.928Z,20.20
2018-04-16T07:13:46.832Z,20.50
2018-04-16T07:16:16.705Z,20.70
2018-04-16T07:18:46.359Z,20.70
2018-04-16T07:21:16.192Z,20.70
2018-04-16T07:23:46.743Z,21.30
2018-04-16T07:26:16.348Z,21.30
2018-04-16T07:28:46.030Z,20.90
2018-04-16T07:31:16.055Z,20.20
2018-04-16T07:33:45.774Z,20.10
2018-04-16T07:36:16.272Z,19.50
2018-04-16T07:38:46.005Z,19.40
2018-04-16T07:41:17.327Z,19.80
2018-04-16T07:43:47.371Z,20.60
2018-04-16T07:46:18.273Z,21.40
2018-04-16T07:48:48.013Z,22.00
2018-04-16T07:51:17.742Z,22.70
2018-04-16T07:53:47.528Z,22.90
2018-04-16T07:56:17.163Z,23.00
2018-04-16T07:58:46.973Z,23.40
2018-04-16T08:01:16.569Z,23.70
2018-04-16T08:03:47.070Z,23.70
2018-04-16T08:06:17.575Z,23.80
2018-04-16T08:08:48.347Z,24.10
2018-04-16T08:11:18.206Z,24.50
2018-04-16T08:13:49.373Z,25.10
2018-04-16T08:16:19.038Z,25.00
2018-04-16T08:18:49.012Z,24.90
2018-04-16T08:21:18.818Z,25.30
2018-04-16T08:23:49.144Z,25.90
2018-04-16T08:26:19.155Z,25.80
2018-04-16T08:28:48.737Z,25.80
2018-04-16T08:31:18.349Z,26.00
2018-04-16T08:33:48.364Z,26.30
2018-04-16T08:36:19.548Z,25.50
2018-04-16T08:38:49.197Z,25.50
2018-04-16T08:41:18.880Z,25.40
2018-04-16T08:43:48.832Z,25.40
2018-04-16T08:46:18.746Z,26.20
2018-04-16T08:48:48.321Z,26.70
2018-04-16T08:51:18.019Z,27.00
2018-04-16T08:53:48.483Z,28.10
2018-04-16T08:56:19.060Z,28.50
2018-04-16T08:58:48.943Z,28.40
2018-04-16T09:01:18.471Z,29.00
2018-04-16T09:03:48.502Z,29.40
2018-04-16T09:06:19.200Z,29.70
2018-04-16T09:08:48.827Z,29.70
2018-04-16T09:11:18.839Z,29.90
2018-04-16T09:13:48.842Z,29.80
2018-04-16T09:16:18.428Z,29.20
2018-04-16T09:18:48.138Z,28.10
2018-04-16T09:21:17.856Z,27.60
2018-04-16T09:23:47.751Z,27.60
2018-04-16T09:26:17.419Z,27.80
2018-04-16T09:28:47.101Z,28.00
2018-04-16T09:31:18.952Z,28.20
2018-04-16T09:33:48.798Z,28.10
2018-04-16T09:36:18.679Z,28.20
2018-04-16T09:38:48.501Z,28.40
2018-04-16T09:41:22.194Z,29.30
2018-04-16T09:43:52.794Z,29.20
2018-04-16T09:46:23.863Z,28.80
2018-04-16T09:48:54.174Z,28.70
2018-04-16T09:51:33.348Z,28.70
2018-04-16T09:54:03.901Z,28.60
2018-04-16T09:56:34.080Z,29.40
2018-04-16T09:59:04.836Z,29.50
2018-04-16T10:01:39.252Z,29.40
2018-04-16T10:04:09.778Z,29.20
2018-04-16T10:06:39.471Z,29.10
2018-04-16T10:09:09.053Z,29.40
2018-04-16T10:11:39.025Z,29.30
2018-04-16T10:14:09.169Z,28.40
2018-04-16T10:16:39.807Z,28.80
2018-04-16T10:19:09.519Z,28.70
2018-04-16T10:21:39.326Z,28.80
2018-04-16T10:24:16.608Z,28.40
2018-04-16T10:26:47.050Z,28.60
2018-04-16T10:29:17.516Z,28.30
2018-04-16T10:31:47.236Z,28.30
2018-04-16T10:34:17.150Z,28.50
2018-04-16T10:36:46.971Z,28.10
2018-04-16T10:39:16.692Z,28.40
2018-04-16T10:41:46.251Z,28.30
2018-04-16T10:44:16.010Z,28.80
2018-04-16T10:46:45.621Z,29.10
2018-04-16T10:49:16.003Z,30.00
2018-04-16T10:51:45.736Z,30.50
2018-04-16T10:54:16.094Z,30.20
2018-04-16T10:56:45.898Z,30.20
2018-04-16T10:59:16.386Z,30.20
2018-04-16T11:01:46.108Z,29.60
2018-04-16T11:04:16.364Z,28.10
2018-04-16T11:06:46.038Z,27.50
2018-04-16T11:09:16.205Z,27.60
2018-04-16T11:11:46.307Z,28.40
2018-04-16T11:14:16.634Z,29.00
2018-04-16T11:16:46.316Z,29.60
2018-04-16T11:19:16.146Z,30.40
2018-04-16T11:21:46.049Z,30.80
2018-04-16T11:24:16.016Z,31.30
2018-04-16T11:26:45.510Z,31.40
2018-04-16T11:29:16.201Z,31.10
2018-04-16T11:31:46.635Z,31.10
2018-04-16T11:34:17.076Z,31.30
2018-04-16T11:36:46.664Z,31.30
2018-04-16T11:39:16.613Z,31.30
2018-04-16T11:41:46.200Z,31.30
2018-04-16T11:44:17.537Z,30.90
2018-04-16T11:46:47.277Z,30.90
2018-04-16T11:49:17.088Z,31.00
2018-04-16T11:51:46.826Z,30.80
2018-04-16T11:54:17.190Z,30.70
2018-04-16T11:56:48.039Z,30.70
2018-04-16T11:59:18.091Z,30.00
2018-04-16T12:01:48.595Z,29.40
2018-04-16T12:04:18.300Z,29.30
2018-04-16T12:06:48.001Z,29.00
2018-04-16T12:09:17.742Z,29.00
2018-04-16T12:11:47.441Z,28.80
2018-04-16T12:14:17.400Z,28.40
2018-04-16T12:16:47.949Z,29.20
2018-04-16T12:19:19.127Z,29.60
2018-04-16T12:21:49.430Z,29.60
2018-04-16T12:24:19.336Z,29.90
2018-04-16T12:26:49.946Z,30.10
2018-04-16T12:29:20.559Z,29.50
2018-04-16T12:31:50.714Z,29.40
2018-04-16T12:34:20.380Z,29.20
2018-04-16T12:36:50.195Z,29.40
2018-04-16T12:39:20.421Z,29.00
2018-04-16T12:41:50.195Z,29.20
2018-04-16T12:44:20.136Z,29.60
2018-04-16T12:46:50.596Z,29.60
2018-04-16T12:49:21.465Z,29.60
2018-04-16T12:51:52.122Z,29.90
2018-04-16T12:54:23.490Z,29.90
2018-04-16T12:56:54.718Z,29.80
2018-04-16T12:59:24.779Z,29.70
2018-04-16T13:01:56.840Z,29.50
2018-04-16T13:04:28.095Z,29.50
2018-04-16T13:06:59.149Z,29.30
2018-04-16T13:09:30.875Z,29.30
2018-04-16T13:12:03.566Z,29.00
2018-04-16T13:14:34.588Z,28.40
2018-04-16T13:17:04.635Z,28.30
2018-04-16T13:19:34.518Z,28.30
2018-04-16T13:22:05.416Z,28.30
2018-04-16T13:24:35.502Z,28.30
2018-04-16T13:27:05.213Z,28.00
2018-04-16T13:29:35.194Z,28.00
2018-04-16T13:32:05.750Z,27.80
2018-04-16T13:34:35.887Z,27.40
2018-04-16T13:37:07.410Z,26.90
2018-04-16T13:39:38.417Z,26.60
2018-04-16T13:42:08.261Z,26.50
2018-04-16T13:44:38.225Z,26.10
2018-04-16T13:47:08.155Z,25.90
2018-04-16T13:49:38.149Z,25.80
2018-04-16T13:52:08.252Z,25.50
2018-04-16T13:54:41.216Z,25.20
2018-04-16T13:57:11.750Z,25.10
2018-04-16T13:59:41.565Z,25.00
2018-04-16T14:02:11.255Z,25.10
2018-04-16T14:04:41.712Z,24.80
2018-04-16T14:07:11.856Z,24.60
2018-04-16T14:09:42.132Z,24.40
2018-04-16T14:12:13.588Z,24.40
2018-04-16T14:14:43.592Z,24.30
2018-04-16T14:17:14.590Z,24.40
2018-04-16T14:19:44.605Z,24.50
2018-04-16T14:22:16.058Z,24.30
2018-04-16T14:24:47.401Z,24.10
2018-04-16T14:27:18.242Z,24.10
2018-04-16T14:29:49.015Z,23.80
2018-04-16T14:32:19.652Z,23.70
2018-04-16T14:34:49.639Z,23.60
2018-04-16T14:37:20.684Z,23.50
2018-04-16T14:39:51.042Z,23.40
2018-04-16T14:42:22.056Z,23.40
2018-04-16T14:44:53.701Z,23.30
2018-04-16T14:47:24.444Z,23.20
2018-04-16T14:49:55.516Z,22.90
2018-04-16T14:52:26.615Z,22.60
2018-04-16T14:54:57.889Z,22.50
2018-04-16T14:57:28.916Z,22.60
2018-04-16T14:59:59.121Z,22.40
2018-04-16T15:02:29.083Z,22.00
2018-04-16T15:04:59.691Z,21.50
2018-04-16T15:07:32.735Z,21.10
2018-04-16T15:10:03.133Z,20.90
2018-04-16T15:12:33.274Z,20.70
2018-04-16T15:15:04.926Z,20.60
2018-04-16T15:17:35.200Z,20.80
2018-04-16T15:20:05.747Z,21.00
2018-04-16T15:22:36.103Z,20.90
2018-04-16T15:25:06.638Z,21.00
2018-04-16T15:27:36.923Z,21.00
2018-04-16T15:30:07.010Z,21.00
2018-04-16T15:32:37.054Z,21.00
2018-04-16T15:35:08.109Z,21.00
2018-04-16T15:37:38.359Z,20.90
2018-04-16T15:40:09.560Z,20.90
2018-04-16T15:42:39.701Z,20.80
2018-04-16T15:45:10.034Z,20.90
2018-04-16T15:47:49.635Z,20.90
2018-04-16T15:50:20.713Z,20.60
2018-04-16T15:52:51.680Z,20.50
2018-04-16T15:55:22.815Z,20.40
2018-04-16T15:57:53.818Z,20.20
2018-04-16T16:00:25.310Z,20.00
2018-04-16T16:02:55.611Z,20.00
2018-04-16T16:05:26.471Z,19.90
2018-04-16T16:07:56.659Z,19.80
2018-04-16T16:10:27.658Z,19.80
2018-04-16T16:12:58.022Z,19.70
2018-04-16T16:15:28.108Z,19.70
2018-04-16T16:17:58.583Z,19.80
2018-04-16T16:20:29.314Z,19.70
2018-04-16T16:22:59.448Z,19.80
2018-04-16T16:25:30.398Z,19.80
2018-04-16T16:31:01.379Z,19.90
2018-04-16T16:33:54.908Z,19.90
2018-04-16T16:36:35.072Z,20.00
2018-04-16T16:39:07.946Z,20.10
2018-04-16T16:41:38.119Z,20.00
2018-04-16T16:44:08.518Z,20.00
2018-04-16T16:46:39.937Z,20.00
2018-04-16T16:49:10.976Z,20.10
2018-04-16T16:51:41.179Z,20.00
2018-04-16T16:54:11.397Z,20.20
2018-04-16T16:56:42.813Z,20.20
2018-04-16T16:59:13.464Z,20.10
2018-04-16T17:01:43.736Z,20.10
2018-04-16T17:04:15.986Z,20.00
2018-04-16T17:06:46.536Z,20.00
2018-04-16T17:09:16.795Z,20.10
2018-04-16T17:11:47.078Z,20.00
2018-04-16T17:14:17.518Z,20.00
2018-04-16T17:16:47.863Z,19.90
2018-04-16T17:19:18.883Z,19.80
2018-04-16T17:21:50.337Z,19.80
2018-04-16T17:24:20.677Z,19.80
2018-04-16T17:26:51.100Z,19.60
2018-04-16T17:29:21.301Z,19.50
2018-04-16T17:31:51.624Z,19.30
2018-04-16T17:34:21.797Z,19.20
2018-04-16T17:36:51.905Z,19.00
2018-04-16T17:39:22.401Z,18.80
2018-04-16T17:41:52.779Z,18.60
2018-04-16T17:44:23.256Z,18.60
2018-04-16T17:46:53.678Z,18.50
2018-04-16T17:49:23.995Z,18.50
2018-04-16T17:51:55.258Z,18.50
2018-04-16T17:54:25.941Z,18.40
2018-04-16T17:56:56.211Z,18.20
2018-04-16T17:59:26.436Z,18.10
2018-04-16T18:01:56.757Z,18.10
2018-04-16T18:04:26.987Z,18.00
2018-04-16T18:06:57.413Z,17.90
2018-04-16T18:09:27.892Z,17.90
2018-04-16T18:11:57.896Z,17.80
2018-04-16T18:14:28.116Z,17.80
2018-04-16T18:16:58.433Z,17.70
2018-04-16T18:19:29.495Z,17.60
2018-04-16T18:21:59.769Z,17.50
2018-04-16T18:24:30.196Z,17.50
2018-04-16T18:27:00.796Z,17.50
2018-04-16T18:29:33.272Z,17.40
2018-04-16T18:32:03.443Z,17.30
2018-04-16T18:34:37.859Z,17.10
2018-04-16T18:39:55.785Z,17.20
2018-04-16T18:42:38.419Z,17.10
2018-04-16T18:45:09.052Z,17.10
2018-04-16T18:47:39.712Z,17.10
2018-04-16T18:50:11.472Z,17.00
2018-04-16T18:52:41.974Z,16.80
2018-04-16T18:55:14.228Z,17.00
2018-04-16T18:57:44.993Z,17.00
2018-04-16T19:00:17.043Z,17.00
2018-04-16T19:02:47.184Z,17.00
2018-04-16T19:05:17.737Z,16.90
2018-04-16T19:07:47.886Z,16.80
2018-04-16T19:10:19.164Z,16.80
2018-04-16T19:12:49.296Z,16.70
2018-04-16T19:15:19.258Z,16.70
2018-04-16T19:17:55.018Z,16.60
2018-04-16T19:20:30.669Z,16.50
2018-04-16T19:23:00.757Z,16.40
2018-04-16T19:25:32.041Z,16.30
2018-04-16T19:28:09.189Z,16.30
2018-04-16T19:30:39.475Z,16.30
2018-04-16T19:33:15.741Z,16.40
2018-04-16T19:35:46.933Z,16.50
2018-04-16T19:38:17.317Z,16.40
2018-04-16T19:40:47.632Z,16.50
2018-04-16T19:43:25.213Z,16.50
2018-04-16T19:45:55.389Z,16.60
2018-04-16T19:48:25.880Z,16.60
2018-04-16T19:50:56.214Z,16.60
2018-04-16T19:53:26.985Z,16.50
2018-04-16T19:56:03.417Z,16.30
2018-04-16T19:58:33.934Z,16.20
2018-04-16T20:01:04.139Z,16.20
2018-04-16T20:03:40.235Z,16.20
2018-04-16T20:06:10.464Z,16.20
2018-04-16T20:08:40.598Z,16.20
2018-04-16T20:11:10.997Z,16.10
2018-04-16T20:13:42.177Z,16.10
2018-04-16T20:16:14.445Z,15.90
2018-04-16T20:18:46.872Z,15.80
2018-04-16T20:21:53.603Z,15.70
2018-04-16T20:24:40.891Z,15.70
2018-04-16T20:27:13.366Z,15.50
2018-04-16T20:29:44.209Z,15.60
2018-04-16T20:32:14.554Z,15.50
2018-04-16T20:34:52.036Z,15.50
2018-04-16T20:37:23.393Z,15.40
2018-04-16T20:39:55.169Z,15.30
2018-04-16T20:42:25.856Z,15.30
2018-04-16T20:45:03.127Z,15.30
2018-04-16T20:47:33.665Z,15.20
2018-04-16T20:50:05.662Z,15.30
2018-04-16T20:52:35.862Z,15.20
2018-04-16T20:55:06.737Z,15.30
2018-04-16T20:57:38.563Z,15.60
2018-04-16T21:00:08.874Z,15.60
2018-04-16T21:02:40.430Z,15.70
2018-04-16T21:05:11.071Z,15.70
2018-04-16T21:07:43.156Z,15.70
2018-04-16T21:10:19.645Z,15.60
2018-04-16T21:12:50.630Z,15.60
2018-04-16T21:15:20.795Z,15.60
2018-04-16T21:17:51.840Z,15.40
2018-04-16T21:20:22.859Z,15.20
2018-04-16T21:22:54.857Z,15.20
2018-04-16T21:25:25.844Z,15.20
2018-04-16T21:27:56.683Z,15.20
2018-04-16T21:30:26.910Z,15.20
2018-04-16T21:32:57.598Z,15.20
2018-04-16T21:35:27.449Z,15.10
2018-04-16T21:37:58.099Z,15.00
2018-04-16T21:40:28.076Z,14.90
2018-04-16T21:42:57.986Z,14.90
2018-04-16T21:45:27.602Z,14.80
2018-04-16T21:47:57.402Z,14.70
2018-04-16T21:50:33.131Z,14.60
2018-04-16T21:53:02.930Z,14.50
2018-04-16T21:55:32.563Z,14.50
2018-04-16T21:58:02.820Z,14.40
2018-04-16T22:00:32.565Z,14.30
2018-04-16T22:03:02.713Z,14.50
2018-04-16T22:05:34.217Z,14.30
2018-04-16T22:08:04.801Z,14.30
2018-04-16T22:10:35.308Z,14.20
2018-04-16T22:13:05.465Z,14.20
2018-04-16T22:15:35.396Z,14.30
2018-04-16T22:18:06.046Z,14.40
2018-04-16T22:20:37.116Z,14.50
2018-04-16T22:23:08.246Z,14.60
2018-04-16T22:25:37.912Z,14.60
2018-04-16T22:28:07.606Z,14.60
2018-04-16T22:30:38.377Z,14.50
2018-04-16T22:33:21.255Z,14.50
2018-04-16T22:35:50.848Z,14.50
2018-04-16T22:38:20.484Z,14.50
2018-04-16T22:40:51.492Z,14.50
2018-04-16T22:43:22.525Z,14.50
2018-04-16T22:45:52.504Z,14.40
2018-04-16T22:48:22.364Z,14.60
2018-04-16T22:50:52.794Z,14.60
2018-04-16T22:53:23.165Z,14.60
2018-04-16T22:55:57.265Z,14.60
2018-04-16T22:58:35.150Z,14.60
2018-04-16T23:01:05.814Z,14.50
2018-04-16T23:03:37.042Z,14.40
2018-04-16T23:06:08.901Z,14.40
2018-04-16T23:08:39.247Z,14.20
2018-04-16T23:11:09.694Z,13.90
2018-04-16T23:13:41.440Z,13.80
2018-04-16T23:16:12.390Z,13.90
2018-04-16T23:18:42.460Z,13.80
2018-04-16T23:21:17.446Z,14.00
2018-04-16T23:23:56.095Z,13.90
2018-04-16T23:26:27.213Z,14.00
2018-04-16T23:28:58.738Z,13.70
2018-04-16T23:31:30.585Z,13.70
2018-04-16T23:34:08.013Z,13.60
2018-04-16T23:36:39.779Z,13.60
2018-04-16T23:39:11.133Z,13.50
2018-04-16T23:41:45.035Z,13.40
2018-04-16T23:44:18.432Z,13.10
2018-04-16T23:46:48.181Z,13.10
2018-04-16T23:49:19.486Z,13.10
2018-04-16T23:51:50.215Z,13.20
2018-04-16T23:54:20.011Z,13.10
2018-04-16T23:56:49.585Z,13.30
2018-04-16T23:59:20.049Z,13.60
